createdAt,value
2022-11-15T00:00:27.963Z,5.88
2022-11-15T00:02:54.451Z,5.80
2022-11-15T00:05:21.078Z,5.72
2022-11-15T00:07:56.184Z,5.69
2022-11-15T00:10:22.881Z,5.62
2022-11-15T00:12:49.357Z,5.59
2022-11-15T00:15:15.864Z,5.57
2022-11-15T00:17:42.302Z,5.56
2022-11-15T00:20:09.006Z,5.55
2022-11-15T00:22:35.436Z,5.54
2022-11-15T00:25:01.898Z,5.52
2022-11-15T00:27:28.526Z,5.50
2022-11-15T00:29:54.988Z,5.52
2022-11-15T00:32:21.429Z,5.50
2022-11-15T00:34:47.874Z,5.49
2022-11-15T00:37:14.347Z,5.45
2022-11-15T00:39:40.916Z,5.42
2022-11-15T00:42:07.348Z,5.35
2022-11-15T00:44:33.773Z,5.29
2022-11-15T00:47:00.570Z,5.26
2022-11-15T00:49:27.116Z,5.18
2022-11-15T00:51:53.585Z,5.09
2022-11-15T00:54:19.989Z,5.02
2022-11-15T00:56:46.686Z,4.98
2022-11-15T00:59:13.131Z,4.91
2022-11-15T01:01:39.574Z,4.85
2022-11-15T01:04:06.055Z,4.82
2022-11-15T01:07:00.650Z,4.81
2022-11-15T01:09:27.129Z,4.83
2022-11-15T01:11:53.564Z,4.81
2022-11-15T01:14:25.729Z,4.84
2022-11-15T01:20:20.388Z,4.85
2022-11-15T01:22:47.423Z,4.81
2022-11-15T01:25:13.828Z,4.84
2022-11-15T01:27:40.281Z,4.83
2022-11-15T01:30:07.157Z,4.77
2022-11-15T01:32:33.571Z,4.72
2022-11-15T01:34:59.981Z,4.71
2022-11-15T01:37:26.443Z,4.72
2022-11-15T01:39:52.944Z,4.72
2022-11-15T01:42:19.437Z,4.72
2022-11-15T01:44:49.608Z,4.69
2022-11-15T01:47:19.144Z,4.68
2022-11-15T01:49:56.666Z,4.63
2022-11-15T01:52:23.461Z,4.60
2022-11-15T01:54:50.438Z,4.59
2022-11-15T01:57:16.887Z,4.58
2022-11-15T01:59:43.806Z,4.58
2022-11-15T02:02:10.254Z,4.57
2022-11-15T02:04:38.245Z,4.57
2022-11-15T02:07:04.708Z,4.53
2022-11-15T02:09:31.180Z,4.49
2022-11-15T02:11:57.646Z,4.46
2022-11-15T02:14:24.062Z,4.45
2022-11-15T02:17:00.985Z,4.45
2022-11-15T02:19:30.939Z,4.43
2022-11-15T02:21:57.320Z,4.40
2022-11-15T02:24:27.025Z,4.39
2022-11-15T02:27:02.924Z,4.40
2022-11-15T02:30:03.485Z,4.32
2022-11-15T02:32:33.525Z,4.25
2022-11-15T02:35:18.699Z,4.23
2022-11-15T02:37:48.211Z,4.21
2022-11-15T02:40:18.563Z,4.22
2022-11-15T02:43:08.319Z,4.22
2022-11-15T02:45:36.967Z,4.22
2022-11-15T02:48:03.451Z,4.23
2022-11-15T02:50:49.618Z,4.22
2022-11-15T02:53:16.108Z,4.21
2022-11-15T02:55:44.292Z,4.22
2022-11-15T02:58:10.744Z,4.16
2022-11-15T03:00:37.313Z,4.07
2022-11-15T03:03:06.859Z,4.01
2022-11-15T03:05:45.411Z,4.00
2022-11-15T03:08:16.305Z,4.01
2022-11-15T03:10:51.835Z,4.01
2022-11-15T03:13:27.971Z,4.05
2022-11-15T03:15:59.058Z,4.07
2022-11-15T03:18:35.269Z,4.12
2022-11-15T03:21:01.974Z,4.16
2022-11-15T03:23:28.593Z,4.18
2022-11-15T03:25:55.437Z,4.20
2022-11-15T03:28:23.770Z,4.24
2022-11-15T03:30:50.219Z,4.29
2022-11-15T03:33:16.658Z,4.32
2022-11-15T03:35:43.773Z,4.37
2022-11-15T03:38:22.576Z,4.39
2022-11-15T03:40:50.659Z,4.42
2022-11-15T03:43:21.390Z,4.47
2022-11-15T03:45:50.627Z,4.58
2022-11-15T03:48:21.570Z,4.62
2022-11-15T03:50:48.023Z,4.63
2022-11-15T03:53:14.518Z,4.65
2022-11-15T03:55:40.945Z,4.67
2022-11-15T03:58:07.491Z,4.67
2022-11-15T04:00:33.908Z,4.64
2022-11-15T04:03:00.334Z,4.64
2022-11-15T04:05:26.827Z,4.69
2022-11-15T04:07:53.767Z,4.71
2022-11-15T04:10:20.515Z,4.73
2022-11-15T04:12:48.616Z,4.76
2022-11-15T04:15:15.741Z,4.85
2022-11-15T04:17:45.177Z,4.88
2022-11-15T04:20:31.880Z,4.84
2022-11-15T04:23:17.592Z,4.80
2022-11-15T04:25:44.085Z,4.84
2022-11-15T04:28:10.745Z,4.86
2022-11-15T04:30:37.252Z,4.89
2022-11-15T04:33:03.761Z,4.89
2022-11-15T04:35:30.357Z,4.91
2022-11-15T04:37:57.159Z,4.93
2022-11-15T04:40:23.603Z,4.90
2022-11-15T04:42:50.067Z,4.93
2022-11-15T04:45:16.629Z,4.95
2022-11-15T04:47:46.431Z,4.95
2022-11-15T04:50:14.403Z,4.95
2022-11-15T04:52:41.786Z,4.93
2022-11-15T04:55:08.559Z,4.92
2022-11-15T04:57:35.073Z,4.97
2022-11-15T05:00:02.391Z,4.93
2022-11-15T05:02:48.798Z,4.93
2022-11-15T05:05:15.232Z,4.92
2022-11-15T05:07:41.675Z,4.90
2022-11-15T05:10:08.353Z,4.86
2022-11-15T05:12:34.757Z,4.85
2022-11-15T05:15:01.183Z,4.84
2022-11-15T05:17:27.642Z,4.89
2022-11-15T05:19:54.109Z,4.93
2022-11-15T05:22:20.542Z,4.95
2022-11-15T05:24:47.164Z,5.01
2022-11-15T05:27:13.566Z,5.06
2022-11-15T05:29:40.033Z,5.17
2022-11-15T05:32:06.608Z,5.23
2022-11-15T05:34:33.081Z,5.28
2022-11-15T05:36:59.499Z,5.41
2022-11-15T05:39:27.079Z,5.57
2022-11-15T05:41:54.594Z,5.67
2022-11-15T05:44:23.279Z,5.80
2022-11-15T05:46:49.902Z,5.95
2022-11-15T05:49:16.771Z,5.96
2022-11-15T05:51:43.197Z,5.91
2022-11-15T05:54:09.712Z,5.83
2022-11-15T05:56:36.116Z,5.74
2022-11-15T05:59:02.629Z,5.65
2022-11-15T06:01:29.343Z,5.55
2022-11-15T06:03:55.756Z,5.49
2022-11-15T06:06:22.221Z,5.47
2022-11-15T06:08:48.951Z,5.52
2022-11-15T06:11:15.361Z,5.51
2022-11-15T06:13:41.775Z,5.52
2022-11-15T06:16:08.243Z,5.58
2022-11-15T06:18:34.811Z,5.51
2022-11-15T06:21:01.315Z,5.45
2022-11-15T06:23:28.102Z,5.41
2022-11-15T06:25:54.541Z,5.39
2022-11-15T06:28:20.988Z,5.43
2022-11-15T06:30:52.013Z,5.48
2022-11-15T06:33:19.690Z,5.54
2022-11-15T06:35:46.098Z,5.62
2022-11-15T06:38:12.584Z,5.72
2022-11-15T06:40:39.196Z,5.79
2022-11-15T06:43:05.694Z,5.87
2022-11-15T06:45:32.185Z,5.97
2022-11-15T06:47:58.752Z,6.09
2022-11-15T06:50:25.334Z,6.17
2022-11-15T06:52:51.924Z,6.23
2022-11-15T06:55:18.351Z,6.27
2022-11-15T06:57:51.504Z,6.33
2022-11-15T07:00:18.383Z,6.43
2022-11-15T07:02:44.891Z,6.53
2022-11-15T07:05:11.594Z,6.62
2022-11-15T07:07:38.068Z,6.67
2022-11-15T07:10:04.733Z,6.76
2022-11-15T07:12:31.155Z,-144.82
2022-11-15T07:14:57.583Z,-144.82
2022-11-15T07:17:24.218Z,-144.82
2022-11-15T07:19:50.666Z,-144.82
2022-11-15T07:22:17.084Z,-144.82
2022-11-15T07:24:43.530Z,-144.82
2022-11-15T07:27:10.436Z,7.32
2022-11-15T07:29:40.964Z,7.35
2022-11-15T07:32:15.486Z,7.39
2022-11-15T07:34:41.899Z,7.43
2022-11-15T07:37:08.397Z,7.48
2022-11-15T07:39:34.867Z,7.51
2022-11-15T07:42:20.018Z,7.57
2022-11-15T07:44:46.448Z,7.60
2022-11-15T07:47:12.892Z,7.65
2022-11-15T07:49:39.315Z,7.69
2022-11-15T07:52:05.737Z,7.76
2022-11-15T07:54:32.471Z,7.78
2022-11-15T07:57:02.557Z,7.82
2022-11-15T07:59:33.502Z,7.86
2022-11-15T08:01:59.977Z,7.90
2022-11-15T08:04:26.575Z,7.92
2022-11-15T08:06:53.287Z,7.94
2022-11-15T08:09:19.754Z,8.00
2022-11-15T08:11:46.188Z,8.12
2022-11-15T08:14:12.651Z,8.23
2022-11-15T08:16:39.099Z,8.42
2022-11-15T08:19:05.480Z,8.56
2022-11-15T08:21:31.909Z,8.69
2022-11-15T08:23:58.533Z,8.87
2022-11-15T08:26:31.230Z,9.01
2022-11-15T08:28:57.717Z,9.23
2022-11-15T08:31:24.142Z,9.40
2022-11-15T08:33:50.673Z,9.51
2022-11-15T08:36:17.253Z,9.61
2022-11-15T08:38:43.702Z,9.66
2022-11-15T08:41:11.615Z,9.73
2022-11-15T08:43:38.059Z,9.80
2022-11-15T08:46:04.537Z,9.93
2022-11-15T08:48:31.308Z,10.15
2022-11-15T08:50:58.229Z,10.25
2022-11-15T08:53:24.684Z,10.31
2022-11-15T08:55:51.315Z,10.33
2022-11-15T08:58:17.774Z,10.34
2022-11-15T09:00:44.304Z,10.30
2022-11-15T09:03:10.811Z,10.35
2022-11-15T09:05:37.635Z,10.36
2022-11-15T09:08:19.057Z,10.43
2022-11-15T09:10:50.623Z,10.39
2022-11-15T09:13:17.238Z,10.37
2022-11-15T09:15:43.634Z,10.36
2022-11-15T09:18:10.057Z,10.31
2022-11-15T09:20:36.668Z,10.27
2022-11-15T09:23:03.390Z,10.28
2022-11-15T09:25:29.835Z,10.31
2022-11-15T09:27:56.446Z,10.37
2022-11-15T09:30:23.272Z,10.41
2022-11-15T09:32:49.713Z,10.47
2022-11-15T09:35:17.477Z,10.51
2022-11-15T09:37:43.961Z,10.56
2022-11-15T09:40:15.883Z,10.62
2022-11-15T09:42:57.707Z,10.67
2022-11-15T09:45:29.036Z,10.74
2022-11-15T09:47:55.405Z,10.78
2022-11-15T09:50:40.122Z,10.83
2022-11-15T09:53:09.532Z,10.88
2022-11-15T09:55:45.299Z,10.91
2022-11-15T09:58:18.126Z,10.91
2022-11-15T10:00:48.095Z,10.93
2022-11-15T10:03:16.151Z,11.01
2022-11-15T10:05:43.955Z,11.05
2022-11-15T10:08:28.856Z,11.05
2022-11-15T10:11:22.706Z,11.08
2022-11-15T10:13:45.930Z,11.15
2022-11-15T10:16:15.373Z,11.21
2022-11-15T10:18:48.036Z,11.28
2022-11-15T10:21:26.242Z,11.41
2022-11-15T10:23:52.693Z,11.61
2022-11-15T10:26:19.089Z,11.84
2022-11-15T10:28:45.653Z,12.11
2022-11-15T10:31:29.411Z,12.38
2022-11-15T10:34:14.687Z,12.61
2022-11-15T10:36:49.104Z,12.88
2022-11-15T10:39:16.803Z,13.05
2022-11-15T10:41:43.535Z,13.22
2022-11-15T10:44:26.391Z,13.32
2022-11-15T10:46:56.829Z,13.46
2022-11-15T10:49:25.290Z,13.58
2022-11-15T10:55:30.876Z,13.78
2022-11-15T10:58:01.229Z,13.78
2022-11-15T11:00:32.245Z,13.78
2022-11-15T11:03:00.365Z,13.85
2022-11-15T11:05:28.261Z,13.92
2022-11-15T11:07:56.837Z,13.94
2022-11-15T11:10:49.896Z,13.97
2022-11-15T11:13:16.382Z,14.00
2022-11-15T11:15:43.894Z,14.02
2022-11-15T11:18:16.428Z,13.99
2022-11-15T11:20:43.541Z,13.97
2022-11-15T11:23:29.138Z,13.93
2022-11-15T11:25:55.683Z,13.83
2022-11-15T11:28:48.206Z,13.66
2022-11-15T11:31:29.982Z,13.55
2022-11-15T11:34:15.448Z,13.38
2022-11-15T11:36:42.088Z,13.13
2022-11-15T11:39:26.982Z,13.05
2022-11-15T11:41:56.504Z,12.94
2022-11-15T11:44:22.921Z,12.84
2022-11-15T11:47:02.070Z,12.79
2022-11-15T11:49:31.548Z,12.72
2022-11-15T11:52:02.074Z,12.64
2022-11-15T11:57:56.453Z,12.59
2022-11-15T12:00:23.629Z,12.56
2022-11-15T12:03:02.571Z,12.52
2022-11-15T12:05:35.164Z,12.47
2022-11-15T12:08:04.591Z,12.40
2022-11-15T12:10:31.320Z,12.36
2022-11-15T12:13:05.581Z,12.30
2022-11-15T12:15:40.688Z,12.21
2022-11-15T12:18:08.387Z,12.17
2022-11-15T12:20:35.620Z,12.12
2022-11-15T12:23:04.798Z,12.04
2022-11-15T12:25:57.808Z,11.97
2022-11-15T12:28:58.634Z,11.85
2022-11-15T12:31:35.825Z,11.76
2022-11-15T12:34:20.587Z,11.69
2022-11-15T12:36:47.148Z,11.58
2022-11-15T12:39:14.189Z,11.54
2022-11-15T12:41:41.127Z,11.51
2022-11-15T12:44:14.476Z,11.48
2022-11-15T12:50:02.658Z,11.53
2022-11-15T12:52:31.024Z,11.52
2022-11-15T12:54:58.563Z,11.53
2022-11-15T12:57:25.693Z,11.50
2022-11-15T12:59:53.410Z,11.44
2022-11-15T13:02:24.298Z,11.38
2022-11-15T13:04:51.220Z,11.37
2022-11-15T13:10:40.366Z,11.34
2022-11-15T13:13:11.643Z,11.33
2022-11-15T13:15:44.561Z,11.32
2022-11-15T13:18:31.189Z,11.25
2022-11-15T13:21:02.573Z,11.18
2022-11-15T13:23:30.550Z,11.14
2022-11-15T13:26:09.250Z,11.11
2022-11-15T13:28:46.698Z,11.06
2022-11-15T13:31:22.855Z,11.05
2022-11-15T13:33:49.845Z,11.01
2022-11-15T13:36:16.542Z,10.97
2022-11-15T13:38:45.004Z,10.96
2022-11-15T13:41:15.097Z,10.90
2022-11-15T13:43:41.970Z,10.86
2022-11-15T13:46:11.017Z,10.83
2022-11-15T13:48:38.665Z,10.82
2022-11-15T13:51:10.265Z,10.81
2022-11-15T13:53:37.176Z,10.84
2022-11-15T13:56:04.644Z,10.83
2022-11-15T13:58:31.325Z,10.87
2022-11-15T14:01:04.652Z,10.86
2022-11-15T14:03:35.233Z,10.83
2022-11-15T14:06:06.453Z,10.83
2022-11-15T14:08:33.053Z,10.80
2022-11-15T14:11:09.098Z,10.77
2022-11-15T14:13:35.625Z,10.77
2022-11-15T14:16:14.432Z,10.80
2022-11-15T14:18:45.115Z,10.79
2022-11-15T14:21:11.613Z,10.77
2022-11-15T14:23:38.083Z,10.77
2022-11-15T14:26:11.253Z,10.74
2022-11-15T14:28:40.391Z,10.73
2022-11-15T14:31:08.404Z,10.67
2022-11-15T14:33:35.897Z,10.64
2022-11-15T14:36:06.744Z,10.65
2022-11-15T14:38:33.514Z,10.60
2022-11-15T14:41:00.317Z,10.56
2022-11-15T14:43:26.857Z,10.53
2022-11-15T14:45:53.319Z,10.50
2022-11-15T14:48:19.779Z,10.48
2022-11-15T14:50:46.317Z,10.45
2022-11-15T14:53:13.112Z,10.44
2022-11-15T14:55:39.621Z,10.49
2022-11-15T14:58:08.836Z,10.49
2022-11-15T15:00:35.870Z,10.52
2022-11-15T15:03:02.436Z,10.48
2022-11-15T15:05:36.006Z,10.45
2022-11-15T15:08:02.585Z,10.44
2022-11-15T15:10:42.549Z,10.42
2022-11-15T15:13:11.930Z,10.44
2022-11-15T15:15:38.743Z,10.40
2022-11-15T15:18:06.283Z,10.35
2022-11-15T15:20:33.097Z,10.30
2022-11-15T15:22:59.612Z,10.27
2022-11-15T15:25:30.107Z,10.23
2022-11-15T15:27:56.641Z,10.22
2022-11-15T15:30:23.498Z,10.23
2022-11-15T15:32:49.997Z,10.21
2022-11-15T15:35:16.781Z,10.20
2022-11-15T15:37:43.334Z,10.17
2022-11-15T15:40:15.014Z,10.15
2022-11-15T15:42:41.492Z,10.16
2022-11-15T15:45:08.731Z,10.15
2022-11-15T15:47:35.234Z,10.14
2022-11-15T15:50:01.898Z,10.11
2022-11-15T15:52:28.518Z,10.11
2022-11-15T15:54:55.001Z,10.11
2022-11-15T15:57:21.528Z,10.09
2022-11-15T15:59:47.966Z,10.08
2022-11-15T16:02:14.393Z,10.06
2022-11-15T16:04:40.982Z,10.05
2022-11-15T16:07:09.216Z,10.02
2022-11-15T16:09:54.464Z,9.99
2022-11-15T16:12:20.911Z,9.97
2022-11-15T16:14:47.402Z,9.98
2022-11-15T16:17:18.356Z,9.98
2022-11-15T16:19:44.785Z,9.95
2022-11-15T16:22:11.207Z,9.94
2022-11-15T16:24:37.881Z,9.94
2022-11-15T16:27:04.358Z,9.94
2022-11-15T16:29:30.994Z,9.95
2022-11-15T16:31:57.499Z,9.93
2022-11-15T16:34:25.788Z,9.92
2022-11-15T16:36:54.031Z,9.92
2022-11-15T16:39:21.840Z,9.91
2022-11-15T16:41:48.333Z,9.90
2022-11-15T16:44:14.902Z,9.89
2022-11-15T16:46:41.797Z,9.87
2022-11-15T16:49:14.918Z,9.86
2022-11-15T16:51:41.842Z,9.84
2022-11-15T16:54:08.280Z,9.83
2022-11-15T16:56:34.787Z,9.84
2022-11-15T16:59:01.427Z,9.85
2022-11-15T17:01:50.544Z,9.86
2022-11-15T17:04:20.261Z,9.86
2022-11-15T17:06:47.169Z,9.86
2022-11-15T17:09:14.929Z,9.85
2022-11-15T17:11:41.603Z,9.85
2022-11-15T17:14:08.367Z,9.84
2022-11-15T17:16:36.055Z,9.84
2022-11-15T17:19:02.526Z,9.82
2022-11-15T17:21:33.474Z,9.82
2022-11-15T17:24:00.571Z,9.82
2022-11-15T17:26:33.072Z,9.81
2022-11-15T17:29:01.691Z,9.79
2022-11-15T17:31:30.205Z,9.78
2022-11-15T17:33:56.703Z,9.77
2022-11-15T17:36:23.201Z,9.75
2022-11-15T17:38:56.538Z,9.75
2022-11-15T17:41:25.742Z,9.76
2022-11-15T17:43:52.230Z,9.77
2022-11-15T17:46:19.554Z,9.78
2022-11-15T17:48:46.299Z,9.77
2022-11-15T17:51:13.302Z,9.75
2022-11-15T17:53:40.673Z,9.71
2022-11-15T17:56:14.962Z,9.68
2022-11-15T17:58:41.514Z,9.66
2022-11-15T18:01:08.419Z,9.67
2022-11-15T18:03:35.823Z,9.68
2022-11-15T18:06:02.455Z,9.73
2022-11-15T18:08:28.997Z,9.72
2022-11-15T18:11:15.879Z,9.70
2022-11-15T18:13:43.712Z,9.64
2022-11-15T18:16:11.062Z,9.61
2022-11-15T18:18:37.556Z,9.58
2022-11-15T18:21:07.561Z,9.57
2022-11-15T18:23:34.395Z,9.57
2022-11-15T18:26:01.580Z,9.59
2022-11-15T18:28:35.748Z,9.60
2022-11-15T18:31:02.622Z,9.58
2022-11-15T18:33:29.309Z,9.59
2022-11-15T18:36:02.380Z,9.62
2022-11-15T18:38:30.885Z,9.67
2022-11-15T18:40:58.141Z,9.68
2022-11-15T18:43:24.864Z,9.71
2022-11-15T18:45:51.415Z,9.70
2022-11-15T18:48:17.876Z,9.72
2022-11-15T18:51:20.810Z,9.70
2022-11-15T18:53:47.363Z,9.69
2022-11-15T18:56:14.603Z,9.67
2022-11-15T18:58:42.203Z,9.67
2022-11-15T19:01:10.776Z,9.65
2022-11-15T19:03:38.370Z,9.66
2022-11-15T19:06:06.245Z,9.64
2022-11-15T19:08:36.164Z,9.61
2022-11-15T19:11:06.245Z,9.59
2022-11-15T19:13:32.949Z,9.58
2022-11-15T19:15:59.893Z,9.56
2022-11-15T19:18:26.398Z,9.60
2022-11-15T19:20:52.956Z,9.58
2022-11-15T19:23:19.590Z,9.55
2022-11-15T19:25:53.380Z,9.50
2022-11-15T19:28:19.792Z,9.47
2022-11-15T19:30:46.226Z,9.46
2022-11-15T19:33:12.661Z,9.43
2022-11-15T19:35:39.130Z,9.40
2022-11-15T19:38:05.615Z,9.38
2022-11-15T19:40:35.150Z,9.37
2022-11-15T19:43:01.648Z,9.39
2022-11-15T19:45:28.100Z,9.39
2022-11-15T19:47:54.632Z,9.38
2022-11-15T19:50:21.105Z,9.38
2022-11-15T19:52:47.578Z,9.39
2022-11-15T19:55:14.396Z,9.38
2022-11-15T19:57:40.887Z,9.37
2022-11-15T20:00:07.778Z,9.33
2022-11-15T20:02:34.316Z,9.32
2022-11-15T20:08:34.782Z,9.25
2022-11-15T20:11:01.376Z,9.25
2022-11-15T20:13:27.815Z,9.22
2022-11-15T20:15:54.479Z,9.21
2022-11-15T20:18:21.240Z,9.18
2022-11-15T20:20:49.917Z,9.17
2022-11-15T20:23:16.452Z,9.16
2022-11-15T20:25:46.639Z,9.16
2022-11-15T20:28:26.121Z,9.15
2022-11-15T20:30:53.454Z,9.15
2022-11-15T20:33:19.936Z,9.17
2022-11-15T20:35:46.690Z,9.17
2022-11-15T20:38:13.126Z,9.18
2022-11-15T20:40:39.935Z,9.19
2022-11-15T20:43:06.646Z,9.19
2022-11-15T20:45:33.095Z,9.20
2022-11-15T20:47:59.498Z,9.20
2022-11-15T20:50:42.207Z,9.20
2022-11-15T20:53:09.746Z,9.17
2022-11-15T20:55:40.977Z,9.17
2022-11-15T20:58:07.748Z,9.17
2022-11-15T21:00:34.230Z,9.17
2022-11-15T21:03:00.698Z,9.13
2022-11-15T21:05:27.118Z,9.10
2022-11-15T21:07:53.477Z,9.10
2022-11-15T21:10:38.488Z,9.09
2022-11-15T21:13:04.903Z,9.11
2022-11-15T21:15:33.056Z,9.14
2022-11-15T21:17:59.562Z,9.11
2022-11-15T21:20:26.163Z,9.13
2022-11-15T21:22:52.614Z,9.15
2022-11-15T21:25:19.091Z,9.15
2022-11-15T21:27:45.518Z,9.12
2022-11-15T21:30:12.686Z,9.12
2022-11-15T21:32:39.262Z,9.11
2022-11-15T21:35:06.404Z,9.06
2022-11-15T21:37:41.143Z,9.07
2022-11-15T21:40:08.115Z,9.05
2022-11-15T21:42:34.534Z,9.07
2022-11-15T21:45:01.007Z,9.15
2022-11-15T21:47:27.483Z,9.10
2022-11-15T21:49:53.925Z,9.05
2022-11-15T21:52:20.358Z,8.98
2022-11-15T21:54:46.862Z,8.97
2022-11-15T21:57:13.304Z,8.90
2022-11-15T21:59:59.751Z,8.90
2022-11-15T22:02:26.270Z,8.86
2022-11-15T22:04:52.689Z,8.84
2022-11-15T22:07:19.282Z,8.79
2022-11-15T22:09:45.724Z,8.77
2022-11-15T22:12:12.161Z,8.78
2022-11-15T22:14:38.738Z,8.79
2022-11-15T22:17:05.206Z,8.78
2022-11-15T22:19:31.798Z,8.78
2022-11-15T22:21:58.480Z,8.78
2022-11-15T22:24:25.009Z,8.80
2022-11-15T22:26:51.455Z,8.80
2022-11-15T22:29:17.893Z,8.77
2022-11-15T22:31:44.373Z,8.79
2022-11-15T22:34:11.001Z,8.79
2022-11-15T22:36:58.338Z,8.80
2022-11-15T22:39:24.991Z,8.80
2022-11-15T22:41:51.523Z,8.82
2022-11-15T22:44:18.285Z,8.80
2022-11-15T22:46:44.725Z,8.79
2022-11-15T22:49:13.350Z,8.77
2022-11-15T22:51:40.588Z,8.77
2022-11-15T22:54:07.707Z,8.79
2022-11-15T22:56:34.172Z,8.79
2022-11-15T22:59:00.630Z,8.79
2022-11-15T23:01:27.080Z,8.78
2022-11-15T23:03:53.720Z,8.75
2022-11-15T23:06:20.327Z,8.76
2022-11-15T23:08:47.024Z,8.77
2022-11-15T23:11:32.093Z,8.77
2022-11-15T23:13:58.612Z,8.76
2022-11-15T23:16:37.285Z,8.75
2022-11-15T23:19:07.490Z,8.77
2022-11-15T23:21:53.027Z,8.76
2022-11-15T23:24:19.576Z,8.77
2022-11-15T23:26:46.569Z,8.78
2022-11-15T23:29:13.862Z,8.76
2022-11-15T23:32:02.124Z,8.76
2022-11-15T23:34:40.468Z,8.73
2022-11-15T23:37:07.055Z,8.69
2022-11-15T23:39:33.566Z,8.65
2022-11-15T23:42:02.086Z,8.62
2022-11-15T23:44:32.530Z,8.60
2022-11-15T23:47:03.395Z,8.59
2022-11-15T23:49:29.853Z,8.58
2022-11-15T23:51:56.310Z,8.56
2022-11-15T23:54:22.775Z,8.60
2022-11-15T23:56:49.229Z,8.58
2022-11-15T23:59:15.863Z,8.58
